Time;durP1;ratioP1;P1;durP2;ratioP2;P2;SDS_P1;SDS_P2;PMS_P1;PMS_P2;Temp;Humidity;BMP_temperature;BMP_pressure;BME280_temperature;BME280_humidity;BME280_pressure;Samples;Min_cycle;Max_cycle;Signal;HPM_P1;HPM_P2
2024/03/12 00:01:08;;;;;;;5.70;5.50;;;27.00;1.00;;;;;;2611435;54;20407;-71
2024/03/12 00:03:34;;;;;;;5.80;5.60;;;26.90;1.00;;;;;;2609934;54;20411;-71
2024/03/12 00:06:00;;;;;;;5.60;5.40;;;27.00;1.00;;;;;;2610935;54;20403;-71
2024/03/12 00:08:29;;;;;;;5.37;5.17;;;26.90;1.00;;;;;;2610438;54;20454;-71
2024/03/12 00:10:55;;;;;;;6.20;6.00;;;26.90;1.00;;;;;;2611559;39;20292;-70
2024/03/12 00:13:21;;;;;;;5.70;5.50;;;26.90;1.00;;;;;;2611017;39;20764;-71
2024/03/12 00:15:46;;;;;;;5.77;5.57;;;26.90;1.00;;;;;;2610210;39;20792;-71
2024/03/12 00:18:13;;;;;;;5.73;5.53;;;26.90;1.00;;;;;;2610972;54;20167;-72
2024/03/12 00:20:39;;;;;;;5.80;5.60;;;26.80;1.00;;;;;;2610596;54;20167;-71
2024/03/12 00:23:06;;;;;;;5.87;5.67;;;26.80;1.00;;;;;;2611351;54;20399;-71
2024/03/12 00:25:33;;;;;;;5.80;5.60;;;26.80;1.00;;;;;;2610513;54;20407;-71
2024/03/12 00:27:59;;;;;;;5.77;5.57;;;26.80;1.00;;;;;;2611054;54;20447;-71
2024/03/12 00:30:25;;;;;;;5.80;5.60;;;26.80;1.00;;;;;;2611668;54;20422;-67
2024/03/12 00:32:54;;;;;;;5.30;5.10;;;26.70;1.00;;;;;;2612210;54;20162;-67
2024/03/12 00:35:23;;;;;;;5.50;5.30;;;26.70;1.00;;;;;;2611835;54;20446;-66
2024/03/12 00:37:52;;;;;;;5.70;5.50;;;26.70;1.00;;;;;;2612461;39;20848;-67
2024/03/12 00:40:20;;;;;;;6.00;5.80;;;26.60;1.00;;;;;;2611729;54;20446;-66
2024/03/12 00:42:47;;;;;;;6.00;5.80;;;26.60;1.00;;;;;;2612682;54;20403;-66
2024/03/12 00:45:14;;;;;;;5.80;5.60;;;26.60;1.00;;;;;;2612630;54;20411;-65
2024/03/12 00:47:41;;;;;;;5.70;5.50;;;26.60;1.00;;;;;;2611931;54;20434;-66
2024/03/12 00:50:14;;;;;;;6.90;6.70;;;26.60;1.00;;;;;;2611916;54;20431;-65
2024/03/12 00:52:43;;;;;;;5.57;5.37;;;26.60;1.00;;;;;;2612258;54;20399;-64
2024/03/12 00:55:09;;;;;;;5.70;5.50;;;26.60;1.00;;;;;;2611823;54;20392;-64
2024/03/12 00:57:38;;;;;;;5.57;5.37;;;26.60;1.00;;;;;;2611394;54;20438;-64
2024/03/12 01:00:28;;;;;;;5.90;5.70;;;26.60;1.00;;;;;;2611721;54;20511;-64
2024/03/12 01:02:58;;;;;;;6.20;6.00;;;26.60;1.00;;;;;;2612282;54;20451;-63
2024/03/12 01:05:25;;;;;;;6.10;5.90;;;26.60;1.00;;;;;;2611726;54;20426;-64
2024/03/12 01:07:57;;;;;;;5.57;5.37;;;26.60;1.00;;;;;;2610033;54;20419;-64
2024/03/12 01:10:23;;;;;;;6.37;6.17;;;26.60;1.00;;;;;;2612308;54;20380;-64
2024/03/12 01:12:50;;;;;;;6.00;5.80;;;26.50;1.00;;;;;;2612528;54;20419;-64
2024/03/12 01:15:18;;;;;;;5.90;5.70;;;26.50;1.00;;;;;;2612273;47;20175;-64
2024/03/12 01:17:47;;;;;;;5.70;5.50;;;26.50;1.00;;;;;;2611766;54;20847;-64
2024/03/12 01:20:16;;;;;;;5.90;5.70;;;26.50;1.00;;;;;;2612364;39;20703;-64
2024/03/12 01:22:45;;;;;;;5.90;5.70;;;26.50;1.00;;;;;;2610903;54;20454;-64
2024/03/12 01:25:11;;;;;;;5.40;5.20;;;26.40;1.00;;;;;;2612424;54;20449;-64
2024/03/12 01:27:38;;;;;;;5.40;5.20;;;26.40;1.00;;;;;;2611259;54;20402;-64
2024/03/12 01:30:13;;;;;;;5.70;5.50;;;26.40;1.00;;;;;;2612607;54;20399;-64
2024/03/12 01:32:46;;;;;;;6.20;6.00;;;26.40;1.00;;;;;;2611404;54;20396;-64
2024/03/12 01:35:13;;;;;;;5.67;5.47;;;26.30;1.00;;;;;;2612388;54;20427;-64
2024/03/12 01:37:45;;;;;;;6.00;5.80;;;26.40;1.00;;;;;;2611112;54;20511;-63
2024/03/12 01:40:22;;;;;;;5.70;5.50;;;26.30;1.00;;;;;;2612231;54;20455;-66
2024/03/12 01:43:08;;;;;;;5.80;5.60;;;26.30;1.00;;;;;;2612067;54;20454;-69
2024/03/12 01:45:34;;;;;;;6.30;6.10;;;26.30;1.00;;;;;;2612069;54;20442;-68
2024/03/12 01:48:06;;;;;;;5.97;5.77;;;26.30;1.00;;;;;;2611752;47;20423;-68
2024/03/12 01:50:32;;;;;;;5.73;5.53;;;26.30;1.00;;;;;;2611342;54;20209;-65
2024/03/12 01:53:05;;;;;;;6.00;5.80;;;26.30;1.00;;;;;;2611476;54;20451;-67
2024/03/12 01:55:37;;;;;;;5.90;5.70;;;26.30;1.00;;;;;;2611278;51;20419;-67
2024/03/12 01:58:04;;;;;;;5.93;5.73;;;26.30;1.00;;;;;;2611217;54;20415;-66
2024/03/12 02:00:32;;;;;;;6.30;6.10;;;26.30;1.00;;;;;;2612045;54;20411;-68
2024/03/12 02:02:59;;;;;;;6.17;5.97;;;26.30;1.00;;;;;;2609994;54;20443;-68
2024/03/12 02:05:26;;;;;;;6.30;6.10;;;26.20;1.00;;;;;;2611898;54;20462;-67
2024/03/12 02:07:56;;;;;;;6.10;5.90;;;26.20;1.00;;;;;;2611033;54;20424;-67
2024/03/12 02:10:23;;;;;;;6.40;6.20;;;26.20;1.00;;;;;;2612586;39;20853;-68
2024/03/12 02:12:49;;;;;;;6.03;5.83;;;26.20;1.00;;;;;;2612628;54;20388;-66
2024/03/12 02:15:20;;;;;;;8.60;8.20;;;26.20;1.00;;;;;;2612025;39;20815;-68
2024/03/12 02:17:47;;;;;;;5.90;5.70;;;26.20;1.00;;;;;;2611944;54;20159;-66
2024/03/12 02:20:13;;;;;;;5.87;5.67;;;26.20;1.00;;;;;;2612053;54;20474;-67
2024/03/12 02:22:39;;;;;;;6.10;5.90;;;26.20;1.00;;;;;;2611155;54;20442;-67
2024/03/12 02:25:06;;;;;;;6.03;5.83;;;26.20;1.00;;;;;;2610768;54;20546;-68
2024/03/12 02:27:32;;;;;;;5.70;5.50;;;26.20;1.00;;;;;;2611961;54;20418;-67
2024/03/12 02:29:57;;;;;;;5.90;5.70;;;26.20;1.00;;;;;;2612349;54;20975;-67
2024/03/12 02:32:23;;;;;;;5.80;5.60;;;26.20;1.00;;;;;;2611229;54;20281;-68
2024/03/12 02:34:52;;;;;;;5.90;5.70;;;26.10;1.00;;;;;;2612374;39;20626;-68
2024/03/12 02:37:21;;;;;;;6.00;5.80;;;26.10;1.00;;;;;;2612216;54;20430;-68
2024/03/12 02:39:46;;;;;;;6.00;5.80;;;26.10;1.00;;;;;;2611041;54;20494;-67
2024/03/12 02:42:12;;;;;;;6.50;6.30;;;26.20;1.00;;;;;;2612590;39;20767;-69
2024/03/12 02:44:38;;;;;;;5.90;5.70;;;26.10;1.00;;;;;;2612141;31;20584;-68
2024/03/12 02:47:04;;;;;;;5.90;5.70;;;26.10;1.00;;;;;;2611445;54;20274;-67
2024/03/12 02:49:30;;;;;;;6.07;5.87;;;26.10;1.00;;;;;;2612213;54;20163;-70
2024/03/12 02:51:57;;;;;;;6.10;5.90;;;26.10;1.00;;;;;;2611124;54;20447;-70
2024/03/12 02:54:25;;;;;;;5.97;5.77;;;26.10;1.00;;;;;;2611945;54;20487;-70
2024/03/12 02:56:51;;;;;;;5.80;5.60;;;26.10;1.00;;;;;;2611164;54;20399;-70
2024/03/12 02:59:17;;;;;;;5.87;5.67;;;26.10;1.00;;;;;;2611788;54;20415;-66
2024/03/12 03:01:43;;;;;;;7.93;7.60;;;26.00;1.00;;;;;;2610713;54;20437;-66
2024/03/12 03:04:08;;;;;;;5.90;5.70;;;26.00;1.00;;;;;;2610660;39;20261;-66
2024/03/12 03:06:35;;;;;;;6.10;5.90;;;26.00;1.00;;;;;;2609675;54;20411;-66
2024/03/12 03:09:01;;;;;;;5.73;5.53;;;26.00;1.00;;;;;;2611798;54;20162;-68
2024/03/12 03:11:27;;;;;;;5.70;5.50;;;26.00;1.00;;;;;;2612144;54;20423;-64
2024/03/12 03:13:52;;;;;;;6.00;5.80;;;26.00;1.00;;;;;;2612358;54;20952;-64
2024/03/12 03:16:20;;;;;;;5.80;5.60;;;26.00;1.00;;;;;;2611916;54;20147;-64
2024/03/12 03:18:46;;;;;;;5.90;5.70;;;26.00;1.00;;;;;;2611335;54;20193;-64
2024/03/12 03:21:12;;;;;;;5.87;5.67;;;26.00;1.00;;;;;;2612744;54;20454;-71
2024/03/12 03:23:41;;;;;;;6.30;6.10;;;26.00;1.00;;;;;;2611866;39;20798;-70
2024/03/12 03:26:08;;;;;;;6.20;6.00;;;26.00;1.00;;;;;;2612583;54;20403;-70
2024/03/12 03:28:33;;;;;;;6.00;5.80;;;26.00;1.00;;;;;;2613143;54;20470;-70
2024/03/12 03:30:59;;;;;;;7.40;6.80;;;26.00;1.00;;;;;;2611970;54;20964;-70
2024/03/12 03:33:25;;;;;;;5.90;5.70;;;26.00;1.00;;;;;;2612020;54;20250;-70
2024/03/12 03:35:51;;;;;;;6.10;5.90;;;26.00;1.00;;;;;;2613272;39;20550;-71
2024/03/12 03:38:19;;;;;;;5.87;5.67;;;26.00;1.00;;;;;;2613262;54;21534;-70
2024/03/12 03:40:45;;;;;;;5.90;5.70;;;26.00;1.00;;;;;;2613042;39;20611;-71
2024/03/12 03:43:11;;;;;;;6.40;6.20;;;25.90;1.00;;;;;;2612324;54;20937;-71
2024/03/12 03:45:37;;;;;;;6.00;5.80;;;25.90;1.00;;;;;;2611829;54;20439;-71
2024/03/12 03:48:03;;;;;;;6.10;5.90;;;25.90;1.00;;;;;;2611841;54;20702;-71
2024/03/12 03:50:28;;;;;;;7.40;7.20;;;25.90;1.00;;;;;;2611784;54;20483;-71
2024/03/12 03:52:54;;;;;;;6.93;6.73;;;26.00;1.00;;;;;;2612405;54;21093;-71
2024/03/12 03:55:22;;;;;;;6.60;6.40;;;25.90;1.00;;;;;;2611225;54;20169;-71
2024/03/12 03:57:51;;;;;;;7.17;6.97;;;25.90;1.00;;;;;;2612049;54;21045;-71
2024/03/12 04:00:22;;;;;;;6.80;6.60;;;26.00;1.00;;;;;;2610938;54;20410;-71
2024/03/12 04:02:49;;;;;;;6.37;6.17;;;25.90;1.00;;;;;;2608507;54;20399;-70
2024/03/12 04:05:15;;;;;;;6.83;6.63;;;26.00;1.00;;;;;;2612109;47;20403;-71
2024/03/12 04:07:43;;;;;;;6.30;6.10;;;26.00;1.00;;;;;;2611761;54;20423;-72
2024/03/12 04:10:12;;;;;;;6.70;6.50;;;26.00;1.00;;;;;;2612531;54;20395;-71
2024/03/12 04:12:44;;;;;;;6.53;6.33;;;26.00;1.00;;;;;;2613272;54;20442;-70
2024/03/12 04:15:10;;;;;;;6.37;6.17;;;26.00;1.00;;;;;;2612596;54;20407;-70
2024/03/12 04:17:37;;;;;;;6.70;6.50;;;26.10;1.00;;;;;;2612923;54;20411;-70
2024/03/12 04:20:05;;;;;;;6.40;6.20;;;26.10;1.00;;;;;;2612683;54;20457;-67
2024/03/12 04:22:31;;;;;;;6.60;6.40;;;26.10;1.00;;;;;;2611640;54;20984;-66
2024/03/12 04:24:57;;;;;;;6.20;6.00;;;26.10;1.00;;;;;;2611620;54;20423;-67
2024/03/12 04:27:23;;;;;;;6.60;6.40;;;26.10;1.00;;;;;;2613115;39;20853;-65
2024/03/12 04:29:48;;;;;;;6.40;6.20;;;26.00;1.00;;;;;;2612425;54;20173;-67
2024/03/12 04:32:15;;;;;;;6.13;5.93;;;26.00;1.00;;;;;;2613124;31;20581;-67
2024/03/12 04:34:40;;;;;;;5.80;5.60;;;26.00;1.00;;;;;;2613050;54;20216;-67
2024/03/12 04:37:07;;;;;;;6.03;5.83;;;26.00;1.00;;;;;;2613000;54;20431;-68
2024/03/12 04:39:33;;;;;;;6.60;6.40;;;26.00;1.00;;;;;;2612922;54;20194;-64
2024/03/12 04:42:05;;;;;;;6.50;6.30;;;26.10;1.00;;;;;;2613056;54;20999;-64
2024/03/12 04:44:31;;;;;;;6.53;6.33;;;26.10;1.00;;;;;;2612699;54;20430;-64
2024/03/12 04:46:57;;;;;;;6.50;6.30;;;26.00;1.00;;;;;;2612776;39;20793;-64
2024/03/12 04:49:22;;;;;;;6.20;6.00;;;26.00;1.00;;;;;;2611851;47;20435;-64
2024/03/12 04:51:50;;;;;;;6.40;6.20;;;26.00;1.00;;;;;;2612180;54;20680;-64
2024/03/12 04:54:19;;;;;;;6.40;6.20;;;26.00;1.00;;;;;;2611317;54;20237;-64
2024/03/12 04:56:50;;;;;;;5.93;5.73;;;26.00;1.00;;;;;;2612115;54;21047;-64
2024/03/12 04:59:16;;;;;;;6.50;6.30;;;26.00;1.00;;;;;;2610872;54;20423;-64
2024/03/12 05:01:48;;;;;;;6.30;6.10;;;25.90;1.00;;;;;;2611107;54;20459;-64
2024/03/12 05:04:14;;;;;;;5.80;5.60;;;25.90;1.00;;;;;;2610748;54;20412;-63
2024/03/12 05:06:40;;;;;;;6.00;5.80;;;25.90;1.00;;;;;;2611648;47;20531;-65
2024/03/12 05:09:06;;;;;;;6.20;6.00;;;25.90;1.00;;;;;;2611000;54;20845;-64
2024/03/12 05:11:32;;;;;;;6.33;6.13;;;25.90;1.00;;;;;;2613160;47;20170;-64
2024/03/12 05:13:58;;;;;;;6.27;6.07;;;25.90;1.00;;;;;;2611828;39;20739;-64
2024/03/12 05:16:28;;;;;;;6.50;6.30;;;25.90;1.00;;;;;;2611996;54;20914;-64
2024/03/12 05:18:53;;;;;;;5.63;5.43;;;25.90;1.00;;;;;;2611871;46;20171;-64
2024/03/12 05:21:21;;;;;;;6.17;5.97;;;25.90;1.00;;;;;;2611571;54;20556;-66
2024/03/12 05:23:48;;;;;;;5.90;5.70;;;25.90;1.00;;;;;;2611750;54;20407;-66
2024/03/12 05:26:17;;;;;;;6.73;6.53;;;25.90;1.00;;;;;;2612170;54;20419;-65
2024/03/12 05:28:43;;;;;;;7.20;7.00;;;25.90;1.00;;;;;;2613685;54;20403;-67
2024/03/12 05:31:20;;;;;;;6.93;6.73;;;25.90;1.00;;;;;;2612807;54;20446;-66
2024/03/12 05:33:48;;;;;;;6.47;6.27;;;25.90;1.00;;;;;;2612670;39;20758;-66
2024/03/12 05:36:15;;;;;;;6.87;6.67;;;25.80;1.00;;;;;;2611023;39;22305;-67
2024/03/12 05:38:55;;;;;;;6.80;6.60;;;25.80;1.00;;;;;;2611781;47;20415;-65
2024/03/12 05:41:29;;;;;;;7.00;6.80;;;25.80;1.00;;;;;;2612272;54;20430;-65
2024/03/12 05:49:23;;;;;;;6.10;5.90;;;25.70;1.00;;;;;;2612410;39;20791;-64
2024/03/12 05:51:50;;;;;;;6.67;6.47;;;25.70;1.00;;;;;;2610964;39;20813;-65
2024/03/12 05:54:16;;;;;;;7.33;7.13;;;25.70;1.00;;;;;;2611997;54;20205;-64
2024/03/12 05:56:42;;;;;;;5.70;5.50;;;25.70;1.00;;;;;;2611768;54;20522;-65
2024/03/12 05:59:08;;;;;;;6.30;6.10;;;25.70;1.00;;;;;;2611099;54;20200;-64
2024/03/12 06:01:34;;;;;;;5.90;5.70;;;25.70;1.00;;;;;;2610745;54;20392;-64
2024/03/12 06:03:59;;;;;;;5.70;5.50;;;25.70;1.00;;;;;;2611748;54;20166;-65
2024/03/12 06:06:25;;;;;;;5.60;5.40;;;25.70;1.00;;;;;;2611131;54;20632;-64
2024/03/12 06:08:50;;;;;;;5.70;5.50;;;25.70;1.00;;;;;;2612903;39;20649;-65
2024/03/12 06:11:16;;;;;;;4.77;4.60;;;25.70;1.00;;;;;;2611344;54;20158;-64
2024/03/12 06:13:45;;;;;;;5.87;5.67;;;25.70;1.00;;;;;;2612572;54;20242;-65
2024/03/12 06:16:11;;;;;;;5.43;5.23;;;25.70;1.00;;;;;;2610124;54;21156;-64
2024/03/12 06:18:36;;;;;;;3.43;3.33;;;25.70;1.00;;;;;;2609860;54;20434;-67
2024/03/12 06:21:02;;;;;;;7.40;7.20;;;25.70;1.00;;;;;;2612474;54;20146;-65
2024/03/12 06:23:28;;;;;;;7.43;7.23;;;25.80;1.00;;;;;;2612130;54;20185;-67
2024/03/12 06:25:54;;;;;;;7.33;7.13;;;25.80;1.00;;;;;;2611981;47;20163;-65
2024/03/12 06:28:25;;;;;;;7.43;7.23;;;25.90;1.00;;;;;;2611827;54;20398;-65
2024/03/12 06:30:51;;;;;;;8.00;7.73;;;25.90;1.00;;;;;;2612652;54;20258;-65
2024/03/12 06:33:17;;;;;;;6.63;6.43;;;26.00;1.00;;;;;;2612391;54;20431;-64
2024/03/12 06:35:45;;;;;;;5.40;5.20;;;26.00;1.00;;;;;;2612067;54;20452;-65
2024/03/12 06:38:11;;;;;;;6.80;6.60;;;26.00;1.00;;;;;;2611808;54;20162;-70
2024/03/12 06:40:36;;;;;;;12.67;12.27;;;26.10;1.00;;;;;;2612325;54;20411;-69
2024/03/12 06:43:02;;;;;;;13.00;12.60;;;26.30;1.00;;;;;;2612716;54;20766;-71
2024/03/12 06:45:28;;;;;;;12.40;12.00;;;26.30;1.00;;;;;;2612879;54;20143;-70
2024/03/12 06:47:56;;;;;;;13.20;12.80;;;26.30;1.00;;;;;;2613154;54;20154;-69
2024/03/12 06:50:26;;;;;;;12.80;12.40;;;26.30;1.00;;;;;;2612313;54;20170;-70
2024/03/12 06:52:56;;;;;;;12.70;12.30;;;26.30;1.00;;;;;;2612842;39;20790;-66
2024/03/12 06:55:26;;;;;;;7.60;7.40;;;26.30;1.00;;;;;;2612557;54;20423;-70
2024/03/12 06:57:59;;;;;;;8.40;8.10;;;26.20;1.00;;;;;;2612969;54;20403;-70
2024/03/12 07:00:40;;;;;;;8.47;8.17;;;26.10;1.00;;;;;;2611267;54;20396;-69
2024/03/12 07:03:09;;;;;;;8.10;7.80;;;25.90;1.00;;;;;;2611997;54;20407;-69
2024/03/12 07:05:43;;;;;;;7.90;7.70;;;25.80;1.00;;;;;;2607523;47;20435;-67
2024/03/12 07:08:10;;;;;;;7.20;7.00;;;25.70;1.00;;;;;;2611898;54;20438;-68
2024/03/12 07:10:40;;;;;;;8.17;7.90;;;25.70;1.00;;;;;;2609068;54;20831;-69
2024/03/12 07:13:07;;;;;;;8.20;7.90;;;25.70;1.00;;;;;;2611233;54;20411;-68
2024/03/12 07:15:35;;;;;;;8.53;8.23;;;25.60;1.00;;;;;;2612247;54;20426;-68
2024/03/12 07:18:02;;;;;;;7.47;7.27;;;25.60;1.00;;;;;;2611506;47;20532;-69
2024/03/12 07:20:29;;;;;;;8.13;7.83;;;25.60;1.00;;;;;;2611318;54;20539;-68
2024/03/12 07:22:58;;;;;;;7.80;7.60;;;25.50;1.00;;;;;;2610864;54;20427;-68
2024/03/12 07:25:25;;;;;;;8.37;8.07;;;25.50;1.00;;;;;;2612445;54;20947;-69
2024/03/12 07:27:55;;;;;;;7.40;7.20;;;25.50;1.00;;;;;;2612669;54;20404;-69
2024/03/12 07:30:21;;;;;;;8.00;7.70;;;25.40;1.00;;;;;;2611669;54;20954;-69
2024/03/12 07:32:47;;;;;;;7.30;7.10;;;25.40;1.00;;;;;;2610399;54;20410;-67
2024/03/12 07:35:13;;;;;;;8.40;8.10;;;25.40;1.00;;;;;;2611735;54;20194;-68
2024/03/12 07:37:41;;;;;;;8.87;8.57;;;25.40;1.00;;;;;;2611679;54;20404;-68
2024/03/12 07:40:15;;;;;;;8.33;8.03;;;25.40;1.00;;;;;;2612248;54;20419;-75
2024/03/12 07:42:42;;;;;;;9.60;9.30;;;25.40;1.00;;;;;;2612982;54;20390;-74
2024/03/12 07:45:12;;;;;;;8.70;8.40;;;25.40;1.00;;;;;;2612033;54;21012;-75
2024/03/12 07:47:41;;;;;;;7.77;7.57;;;25.40;1.00;;;;;;2613603;54;20422;-75
2024/03/12 07:50:11;;;;;;;8.70;8.40;;;25.40;1.00;;;;;;2612775;54;20394;-69
2024/03/12 07:52:37;;;;;;;8.47;8.17;;;25.40;1.00;;;;;;2612554;54;20433;-69
2024/03/12 07:55:03;;;;;;;7.57;7.37;;;25.40;1.00;;;;;;2613909;39;20752;-67
2024/03/12 07:57:32;;;;;;;8.57;8.27;;;25.40;1.00;;;;;;2612464;54;20430;-68
2024/03/12 08:00:01;;;;;;;8.50;8.20;;;25.40;1.00;;;;;;2611421;54;20893;-70
2024/03/12 08:02:27;;;;;;;8.80;8.50;;;25.40;1.00;;;;;;2613329;54;20384;-69
2024/03/12 08:04:53;;;;;;;9.27;8.97;;;25.40;1.00;;;;;;2612412;54;20406;-69
2024/03/12 08:07:19;;;;;;;8.60;8.30;;;25.30;1.00;;;;;;2613503;54;20656;-69
2024/03/12 08:09:47;;;;;;;8.90;8.60;;;25.30;1.00;;;;;;2613768;54;20147;-69
2024/03/12 08:12:13;;;;;;;8.73;8.43;;;25.30;1.00;;;;;;2611605;54;20419;-68
2024/03/12 08:14:40;;;;;;;8.50;8.20;;;25.30;1.00;;;;;;2612445;54;20399;-70
2024/03/12 08:17:13;;;;;;;8.40;8.10;;;25.30;1.00;;;;;;2612546;54;20403;-70
2024/03/12 08:19:43;;;;;;;9.00;8.70;;;25.40;1.00;;;;;;2613591;54;20371;-68
2024/03/12 08:22:08;;;;;;;7.40;7.20;;;25.40;1.00;;;;;;2613419;54;20457;-69
2024/03/12 08:24:37;;;;;;;8.40;8.10;;;25.40;1.00;;;;;;2613614;54;20391;-69
2024/03/12 08:27:07;;;;;;;8.50;8.20;;;25.40;1.00;;;;;;2610855;54;20178;-67
2024/03/12 08:29:33;;;;;;;8.77;8.47;;;25.40;1.00;;;;;;2612095;54;20454;-68
2024/03/12 08:31:59;;;;;;;9.00;8.70;;;25.30;1.00;;;;;;2611721;54;20398;-67
2024/03/12 08:34:25;;;;;;;7.83;7.63;;;25.40;1.00;;;;;;2611917;54;20415;-68
2024/03/12 08:36:51;;;;;;;9.67;9.37;;;25.30;1.00;;;;;;2612752;54;20209;-68
2024/03/12 08:39:17;;;;;;;8.90;8.60;;;25.30;1.00;;;;;;2612871;54;20555;-68
2024/03/12 08:41:42;;;;;;;8.20;7.90;;;25.30;1.00;;;;;;2612512;54;20432;-69
2024/03/12 08:44:09;;;;;;;9.00;8.70;;;25.30;1.00;;;;;;2613039;54;20684;-69
2024/03/12 08:46:35;;;;;;;8.67;8.37;;;25.40;1.00;;;;;;2611875;39;20520;-69
2024/03/12 08:49:01;;;;;;;8.80;8.50;;;25.40;1.00;;;;;;2611793;54;20424;-71
2024/03/12 08:51:33;;;;;;;9.30;9.00;;;25.40;1.00;;;;;;2611723;54;20514;-72
2024/03/12 08:54:01;;;;;;;8.70;8.40;;;25.30;1.00;;;;;;2612233;54;20194;-72
2024/03/12 08:56:29;;;;;;;8.30;8.00;;;25.30;1.00;;;;;;2611293;54;20407;-72
2024/03/12 08:58:58;;;;;;;9.00;8.70;;;25.30;1.00;;;;;;2612187;39;20896;-72
2024/03/12 09:01:24;;;;;;;8.60;8.30;;;25.30;1.00;;;;;;2610370;54;20404;-68
2024/03/12 09:03:50;;;;;;;9.20;8.90;;;25.30;1.00;;;;;;2612314;54;20416;-68
2024/03/12 09:06:16;;;;;;;6.90;6.70;;;25.20;1.00;;;;;;2610987;54;20443;-68
2024/03/12 09:08:42;;;;;;;8.53;8.23;;;25.20;1.00;;;;;;2610172;47;20170;-69
2024/03/12 09:11:09;;;;;;;7.63;7.43;;;25.20;1.00;;;;;;2611789;54;20991;-69
2024/03/12 09:13:35;;;;;;;8.70;8.40;;;25.20;1.00;;;;;;2611956;54;20154;-69
2024/03/12 09:16:01;;;;;;;8.50;8.20;;;25.20;1.00;;;;;;2611458;54;20415;-68
2024/03/12 09:18:27;;;;;;;7.90;7.63;;;25.20;1.00;;;;;;2611939;54;20230;-69
2024/03/12 09:20:54;;;;;;;8.17;7.90;;;25.20;1.00;;;;;;2611510;54;20407;-71
2024/03/12 09:23:20;;;;;;;8.40;8.10;;;25.20;1.00;;;;;;2612235;54;20150;-71
2024/03/12 09:25:47;;;;;;;9.00;8.70;;;25.20;1.00;;;;;;2612133;54;20554;-71
2024/03/12 09:28:16;;;;;;;8.20;7.90;;;25.20;1.00;;;;;;2612597;39;20858;-71
2024/03/12 09:30:43;;;;;;;8.67;8.37;;;25.20;1.00;;;;;;2610998;51;20462;-71
2024/03/12 09:33:10;;;;;;;8.50;8.20;;;25.20;1.00;;;;;;2612327;54;20438;-71
2024/03/12 09:35:37;;;;;;;8.87;8.57;;;25.20;1.00;;;;;;2611910;54;20422;-71
2024/03/12 09:38:03;;;;;;;8.43;8.13;;;25.20;1.00;;;;;;2611052;54;20418;-71
2024/03/12 09:40:29;;;;;;;9.50;9.20;;;25.20;1.00;;;;;;2611821;54;20515;-73
2024/03/12 09:42:57;;;;;;;9.60;9.30;;;25.20;1.00;;;;;;2612957;39;21148;-71
2024/03/12 09:45:23;;;;;;;9.40;9.10;;;25.20;1.00;;;;;;2610103;47;20395;-71
2024/03/12 09:47:49;;;;;;;9.10;8.80;;;25.20;1.00;;;;;;2612702;54;20392;-70
2024/03/12 09:50:16;;;;;;;8.80;8.50;;;25.10;1.00;;;;;;2612695;39;20894;-70
2024/03/12 09:52:44;;;;;;;8.93;8.63;;;25.10;1.00;;;;;;2612111;54;20439;-70
2024/03/12 09:55:11;;;;;;;9.20;8.90;;;25.20;1.00;;;;;;2611759;54;20423;-70
2024/03/12 09:57:44;;;;;;;9.43;9.13;;;25.20;1.00;;;;;;2610923;54;21052;-70
2024/03/12 10:00:24;;;;;;;8.97;8.67;;;25.10;1.00;;;;;;2612755;54;20418;-74
2024/03/12 10:02:50;;;;;;;7.90;7.70;;;25.10;1.00;;;;;;2611389;54;21039;-74
2024/03/12 10:05:23;;;;;;;9.30;9.00;;;25.10;1.00;;;;;;2612065;51;20419;-73
2024/03/12 10:08:14;;;;;;;7.80;7.60;;;25.10;1.00;;;;;;2612456;47;20422;-73
2024/03/12 10:10:45;;;;;;;9.40;9.10;;;25.10;1.00;;;;;;2612875;54;20423;-68
2024/03/12 10:13:15;;;;;;;7.80;7.60;;;25.10;1.00;;;;;;2612265;54;20475;-68
2024/03/12 10:15:53;;;;;;;8.97;8.67;;;25.10;1.00;;;;;;2610466;54;20434;-68
2024/03/12 10:18:20;;;;;;;8.17;7.90;;;25.10;1.00;;;;;;2611326;54;20427;-68
2024/03/12 10:20:51;;;;;;;9.60;9.30;;;25.10;1.00;;;;;;2612403;39;20753;-67
2024/03/12 10:23:18;;;;;;;9.03;8.73;;;25.10;1.00;;;;;;2611618;54;20403;-68
2024/03/12 10:25:44;;;;;;;8.93;8.63;;;25.10;1.00;;;;;;2610585;47;20427;-67
2024/03/12 10:28:14;;;;;;;9.20;8.90;;;25.10;1.00;;;;;;2611935;54;20400;-68
2024/03/12 10:30:41;;;;;;;9.00;8.70;;;25.10;1.00;;;;;;2611239;54;21012;-67
2024/03/12 10:33:18;;;;;;;9.00;8.70;;;25.10;1.00;;;;;;2613233;31;20950;-68
2024/03/12 10:35:45;;;;;;;9.30;9.00;;;25.10;1.00;;;;;;2610486;39;20699;-68
2024/03/12 10:38:12;;;;;;;8.63;8.33;;;25.10;1.00;;;;;;2611963;54;20443;-68
2024/03/12 10:40:38;;;;;;;8.40;8.10;;;25.10;1.00;;;;;;2612572;52;20466;-68
2024/03/12 10:43:06;;;;;;;9.33;9.03;;;25.10;1.00;;;;;;2612290;54;20407;-67
2024/03/12 10:45:32;;;;;;;8.30;8.00;;;25.00;1.00;;;;;;2611396;54;20719;-68
2024/03/12 10:47:59;;;;;;;8.83;8.53;;;25.00;1.00;;;;;;2611450;54;20473;-68
2024/03/12 10:50:26;;;;;;;9.07;8.77;;;25.00;1.00;;;;;;2611300;54;20415;-68
2024/03/12 10:52:57;;;;;;;8.93;8.63;;;25.00;1.00;;;;;;2612019;54;20455;-68
2024/03/12 10:55:23;;;;;;;8.90;8.60;;;25.10;1.00;;;;;;2612486;54;20396;-68
2024/03/12 10:57:54;;;;;;;8.80;8.50;;;25.00;1.00;;;;;;2611206;54;20432;-68
2024/03/12 11:00:21;;;;;;;8.80;8.50;;;25.10;1.00;;;;;;2611450;54;20396;-69
2024/03/12 11:02:50;;;;;;;8.90;8.60;;;25.10;1.00;;;;;;2608089;54;20970;-68
2024/03/12 11:05:20;;;;;;;10.07;9.77;;;25.10;1.00;;;;;;2611469;54;20394;-68
2024/03/12 11:07:47;;;;;;;9.50;9.20;;;25.10;1.00;;;;;;2612061;54;20391;-68
2024/03/12 11:10:13;;;;;;;8.90;8.60;;;25.10;1.00;;;;;;2611635;54;20407;-68
2024/03/12 11:12:39;;;;;;;9.07;8.77;;;25.10;1.00;;;;;;2611881;54;21219;-68
2024/03/12 11:15:09;;;;;;;9.00;8.70;;;25.10;1.00;;;;;;2611752;54;20486;-68
2024/03/12 11:17:37;;;;;;;8.60;8.30;;;25.10;1.00;;;;;;2610261;54;20158;-68
2024/03/12 11:20:06;;;;;;;8.93;8.63;;;25.10;1.00;;;;;;2611260;47;20534;-68
2024/03/12 11:22:35;;;;;;;8.80;8.50;;;25.10;1.00;;;;;;2611453;39;20823;-68
2024/03/12 11:25:04;;;;;;;8.60;8.30;;;25.10;1.00;;;;;;2611658;54;20387;-68
2024/03/12 11:27:33;;;;;;;8.00;7.70;;;25.10;1.00;;;;;;2611242;54;20395;-67
2024/03/12 11:30:04;;;;;;;8.40;8.10;;;25.00;1.00;;;;;;2612319;54;20396;-68
2024/03/12 11:32:39;;;;;;;8.90;8.60;;;25.00;1.00;;;;;;2611753;54;20407;-68
2024/03/12 11:35:09;;;;;;;7.60;7.40;;;25.00;1.00;;;;;;2610963;54;20399;-68
2024/03/12 11:37:38;;;;;;;8.50;8.20;;;25.00;1.00;;;;;;2611844;54;20442;-68
2024/03/12 11:40:28;;;;;;;7.70;7.50;;;25.00;1.00;;;;;;2610577;54;20420;-68
2024/03/12 11:42:55;;;;;;;8.60;8.30;;;25.00;1.00;;;;;;2611032;54;20399;-68
2024/03/12 11:45:46;;;;;;;9.27;8.97;;;25.10;1.00;;;;;;2611391;54;20440;-69
2024/03/12 11:48:33;;;;;;;8.33;8.03;;;25.10;1.00;;;;;;2612008;54;20415;-68
2024/03/12 11:50:59;;;;;;;8.50;8.20;;;25.10;1.00;;;;;;2611700;54;20392;-68
2024/03/12 11:53:30;;;;;;;8.13;7.90;;;25.10;1.00;;;;;;2610996;54;21064;-68
2024/03/12 11:55:58;;;;;;;8.57;8.27;;;25.10;1.00;;;;;;2611567;54;20419;-68
2024/03/12 11:58:28;;;;;;;7.83;7.63;;;25.10;1.00;;;;;;2612156;39;20879;-68
2024/03/12 12:00:54;;;;;;;7.50;7.30;;;25.10;1.00;;;;;;2610900;54;20403;-69
2024/03/12 12:03:19;;;;;;;8.13;7.83;;;25.10;1.00;;;;;;2609735;39;20808;-69
2024/03/12 12:05:45;;;;;;;7.43;7.23;;;25.10;1.00;;;;;;2611165;54;20151;-68
2024/03/12 12:08:11;;;;;;;8.50;8.20;;;25.00;1.00;;;;;;2611342;54;20177;-68
2024/03/12 12:10:37;;;;;;;8.27;7.97;;;25.00;1.00;;;;;;2612044;54;20487;-68
2024/03/12 12:13:16;;;;;;;7.10;6.90;;;25.00;1.00;;;;;;2609928;39;20716;-69
2024/03/12 12:16:06;;;;;;;8.57;8.27;;;25.00;1.00;;;;;;2612209;54;20177;-68
2024/03/12 12:18:36;;;;;;;7.80;7.60;;;25.00;1.00;;;;;;2610874;54;20435;-68
2024/03/12 12:21:09;;;;;;;8.60;8.30;;;25.00;1.00;;;;;;2611260;39;20784;-69
2024/03/12 12:23:38;;;;;;;7.63;7.43;;;25.10;1.00;;;;;;2611418;54;20510;-68
2024/03/12 12:26:08;;;;;;;7.57;7.37;;;25.10;1.00;;;;;;2612652;54;20392;-68
2024/03/12 12:28:34;;;;;;;8.50;8.20;;;25.10;1.00;;;;;;2611464;54;20435;-70
2024/03/12 12:31:02;;;;;;;7.50;7.30;;;25.10;1.00;;;;;;2612419;54;20547;-73
2024/03/12 12:33:30;;;;;;;8.37;8.07;;;25.10;1.00;;;;;;2612412;54;20594;-73
2024/03/12 12:36:00;;;;;;;6.87;6.67;;;25.10;1.00;;;;;;2611444;47;20455;-71
2024/03/12 12:38:26;;;;;;;8.20;7.90;;;25.10;1.00;;;;;;2612133;54;20399;-72
2024/03/12 12:40:55;;;;;;;7.33;7.13;;;25.10;1.00;;;;;;2611257;54;20964;-73
2024/03/12 12:43:21;;;;;;;8.43;8.13;;;25.10;1.00;;;;;;2612311;39;20866;-72
2024/03/12 12:45:49;;;;;;;8.33;8.03;;;25.10;1.00;;;;;;2611062;54;20992;-72
2024/03/12 12:48:15;;;;;;;8.07;7.80;;;25.10;1.00;;;;;;2613159;54;20506;-72
2024/03/12 12:50:41;;;;;;;8.50;8.20;;;25.10;1.00;;;;;;2612128;54;20466;-71
2024/03/12 12:53:10;;;;;;;7.80;7.60;;;25.10;1.00;;;;;;2611967;54;20451;-71
2024/03/12 12:55:39;;;;;;;7.80;7.60;;;25.10;1.00;;;;;;2610584;54;20419;-71
2024/03/12 12:58:07;;;;;;;7.60;7.40;;;25.10;1.00;;;;;;2611736;54;20983;-71
2024/03/12 13:00:37;;;;;;;20.50;18.37;;;25.10;1.00;;;;;;2612322;39;20654;-71
2024/03/12 13:03:17;;;;;;;9.00;8.70;;;25.10;1.00;;;;;;2610825;54;21407;-72
2024/03/12 13:05:44;;;;;;;7.50;7.30;;;25.10;1.00;;;;;;2612394;54;20388;-71
2024/03/12 13:08:25;;;;;;;8.53;8.23;;;25.10;1.00;;;;;;2611694;54;20395;-71